Αρχική σελίδα
METAR-TAF:

METAR-TAF

Αεροδρόμια :

Merced Municipal Airport (MacReady Field)

Merced, Καλιφόρνια, Ηνωμένες Πολιτείες Αμερικής

γεωγραφικό πλάτος: 37-16-59N, γεωγραφικό μήκος: 120-30-28W, υψόμετρο: 47 μ

Παρών καιρός

Η αναφορά έγινε 51 λεπτά πριν, στις 22:53 UTC
Άνεμος 9 kt από
Θερμοκρασία 36°C
Υγρασία 31%
Πίεση 1014 hPa
Ορατότητα: 16.1 χλμ
Καθαρός ουρανός

METAR: KMCE 222253Z AUTO 31009KT 10SM CLR 36/16 A2995 RMK AO2 SLP139 T03560156

Χρόνος: 16:44 (23:44 UTC)

Πρόγνωση Καιρού

Η αναφορά έγινε 24 λεπτά πριν, στις 23:20 UTC
Η πρόγνωση ισχύει από τις 23 στις 00 UTC έως τις 23 στις 24 UTC
Άνεμος 9 kt από
Ορατότητα: 10 χλμ
Αρκετά νέφη σε ύψος 20000 πόδια

TAF: KMCE 222320Z 2300/2324 31009KT P6SM BKN200

Μετεωρολογικές αναφορές και προγνώσεις για περισσότερα από 4000 αεροδρόμια (δελτία METAR και TAF).

Οι διαθέσιμοι σταθμοί απεικονίζονται στο χάρτη με κίτρινες και κόκκινες κουκκίδες.

Μετακινήστε το ποντίκι πάνω από τις κουκκίδες για να δείτε το όνομα του σταθμού.

Στη συνέχεια, κάντε κλικ για να δείτε τις μετεωρολογικές αναφορές και τις προγνώσεις καιρού.

Για να αλλάξετε το χάρτη: κάντε κλικ στα πράσινα κουμπιά με τον μαύρο σταυρό για να ζουμάρετε, στο πράσινο κουμπί με την παύλα για να αφαιρέσετε το ζουμ ή στα πράσινα βέλη για να αντιπαραβάλλετε χάρτες.


METAR-TAF: